Estación Meteorológica Peña el Pijo (Robertgarden) [ 11/16/19 01:54:52 CET ]

Fecha Hora Presion(HPa) Temp (°C) Humedad % Rocio (°C) Viento ( m/s) Direccion Lluvia 1Hora(mm) Lluvia 24H(mm) LLuvia Total(mm)
2019-Jul-27 01:01:38 1007.400 20.8 40 6.7         344.18
2019-Jul-27 02:01:43 1006.600 19.9 42 6.6         344.18
2019-Jul-27 03:01:39 1005.800 19.4 38 4.6         344.18
2019-Jul-27 04:01:42 1005.500 18.8 39 4.5 0.3 NE     344.18
2019-Jul-27 05:01:45 1005.500 18.6 40 4.7         344.18
2019-Jul-27 06:01:41 1004.900 17.9 43 5.1         344.18
2019-Jul-27 07:01:47 1005.000 17.9 45 5.7 3.0 NNE     344.18
2019-Jul-27 08:02:00 1004.900 18.5 45 6.3         344.18
2019-Jul-27 09:01:47 1005.000 20.7 41 7.0         344.18
2019-Jul-27 10:02:01 1005.000 23.3 26 2.5         344.18
2019-Jul-27 11:02:07 1004.700 22.8 23 0.4 0.3 NNE     344.18
2019-Jul-27 12:01:47 1004.900 22.4 23 0.1         344.18
2019-Jul-27 13:01:43 1004.800 26.8 27 6.1         344.18
2019-Jul-27 14:01:38 1004.900 27.0 30 8.0         344.18
2019-Jul-27 15:01:48 1004.800 25.9 32 7.9         344.18
2019-Jul-27 16:01:37 1004.400 26.1 36 9.8         344.18
2019-Jul-27 17:01:49 1004.100 26.1 38 10.6         344.18
2019-Jul-27 18:01:47 1003.600 25.5 40 10.9         344.18
2019-Jul-27 19:01:40 1003.600 24.9 41 10.8         344.18
2019-Jul-27 20:01:41 1004.000 23.3 46 11.0         344.18
2019-Jul-27 21:01:48 1004.100 22.1 50 11.2         344.18
2019-Jul-27 22:01:26 1004.800 21.3 55 11.9         344.18
2019-Jul-27 23:01:38 1005.700 20.7 57 11.9         344.18

Temperatura Máxima:27°    Temperatura Mínima:17°
Presión Máxima:1007.400 Hpa    Presión Mínima:1003.600 Hpa


Volver